createdAt,value
2019-03-23T00:00:10.148Z,4.65
2019-03-23T00:02:38.946Z,5.10
2019-03-23T00:05:09.155Z,4.28
2019-03-23T00:07:37.784Z,4.58
2019-03-23T00:10:07.084Z,4.20
2019-03-23T00:12:36.029Z,5.65
2019-03-23T00:15:10.026Z,4.72
2019-03-23T00:17:41.477Z,4.95
2019-03-23T00:20:10.473Z,5.60
2019-03-23T00:22:39.123Z,5.85
2019-03-23T00:25:07.746Z,4.65
2019-03-23T00:27:36.339Z,4.87
2019-03-23T00:30:10.308Z,4.85
2019-03-23T00:32:38.944Z,4.83
2019-03-23T00:35:11.365Z,5.45
2019-03-23T00:37:40.403Z,5.15
2019-03-23T00:40:09.731Z,5.10
2019-03-23T00:42:38.441Z,5.10
2019-03-23T00:45:08.179Z,6.30
2019-03-23T00:47:36.570Z,4.97
2019-03-23T00:50:06.083Z,5.45
2019-03-23T00:52:34.499Z,6.12
2019-03-23T00:55:02.888Z,4.95
2019-03-23T00:57:31.280Z,4.45
2019-03-23T00:59:59.921Z,4.72
2019-03-23T01:02:28.559Z,4.33
2019-03-23T01:04:57.194Z,4.83
2019-03-23T01:07:25.583Z,5.35
2019-03-23T01:09:53.983Z,4.78
2019-03-23T01:12:22.377Z,5.05
2019-03-23T01:14:50.765Z,4.37
2019-03-23T01:17:19.232Z,5.85
2019-03-23T01:19:47.625Z,5.25
2019-03-23T01:22:16.017Z,4.42
2019-03-23T01:24:44.646Z,4.05
2019-03-23T01:27:13.045Z,5.10
2019-03-23T01:29:41.438Z,4.50
2019-03-23T01:32:09.907Z,4.90
2019-03-23T01:34:38.374Z,3.95
2019-03-23T01:37:06.798Z,4.60
2019-03-23T01:39:35.187Z,4.22
2019-03-23T01:42:03.761Z,4.47
2019-03-23T01:44:46.145Z,4.78
2019-03-23T01:47:14.794Z,4.83
2019-03-23T01:49:43.191Z,4.45
2019-03-23T01:52:11.951Z,4.42
2019-03-23T01:54:40.414Z,4.03
2019-03-23T01:57:08.818Z,4.25
2019-03-23T01:59:37.222Z,4.55
2019-03-23T02:02:05.877Z,5.08
2019-03-23T02:04:34.267Z,4.50
2019-03-23T02:07:13.167Z,4.55
2019-03-23T02:09:32.831Z,5.05
2019-03-23T02:12:01.338Z,5.70
2019-03-23T02:14:29.729Z,4.85
2019-03-23T02:16:58.122Z,4.10
2019-03-23T02:19:26.585Z,4.20
2019-03-23T02:21:55.002Z,4.25
2019-03-23T02:24:23.497Z,5.00
2019-03-23T02:26:51.891Z,4.25
2019-03-23T02:29:20.417Z,3.55
2019-03-23T02:31:48.843Z,4.85
2019-03-23T02:34:17.253Z,4.12
2019-03-23T02:36:45.899Z,4.22
2019-03-23T02:39:14.276Z,4.30
2019-03-23T02:41:42.709Z,4.40
2019-03-23T02:44:11.105Z,4.62
2019-03-23T02:46:39.734Z,5.50
2019-03-23T02:49:08.147Z,3.35
2019-03-23T02:51:39.621Z,3.83
2019-03-23T02:54:06.654Z,4.83
2019-03-23T02:56:35.126Z,4.12
2019-03-23T02:59:03.780Z,4.37
2019-03-23T03:01:32.199Z,4.20
2019-03-23T03:04:00.602Z,3.65
2019-03-23T03:06:29.330Z,4.40
2019-03-23T03:08:57.794Z,3.37
2019-03-23T03:11:26.199Z,3.95
2019-03-23T03:13:54.587Z,4.62
2019-03-23T03:16:22.998Z,4.25
2019-03-23T03:18:51.429Z,3.60
2019-03-23T03:21:19.821Z,4.00
2019-03-23T03:23:48.245Z,3.98
2019-03-23T03:26:16.878Z,3.92
2019-03-23T03:28:45.291Z,4.25
2019-03-23T03:31:13.712Z,3.90
2019-03-23T03:33:42.111Z,3.58
2019-03-23T03:36:10.600Z,3.87
2019-03-23T03:38:38.995Z,4.10
2019-03-23T03:41:07.462Z,4.40
2019-03-23T03:43:36.103Z,4.25
2019-03-23T03:46:04.510Z,4.10
2019-03-23T03:48:33.142Z,4.78
2019-03-23T03:51:01.528Z,3.70
2019-03-23T03:53:29.919Z,4.35
2019-03-23T03:55:58.323Z,4.30
2019-03-23T03:58:26.731Z,4.10
2019-03-23T04:00:55.217Z,4.20
2019-03-23T04:03:23.911Z,3.90
2019-03-23T04:05:52.556Z,4.25
2019-03-23T04:08:21.186Z,4.20
2019-03-23T04:10:49.574Z,3.58
2019-03-23T04:13:18.216Z,4.53
2019-03-23T04:15:46.707Z,3.80
2019-03-23T04:18:15.114Z,4.40
2019-03-23T04:20:43.585Z,4.15
2019-03-23T04:23:11.979Z,4.15
2019-03-23T04:25:40.426Z,4.20
2019-03-23T04:28:09.111Z,4.00
2019-03-23T04:30:37.522Z,5.05
2019-03-23T04:33:05.920Z,3.45
2019-03-23T04:35:34.302Z,4.50
2019-03-23T04:38:02.714Z,4.15
2019-03-23T04:40:31.419Z,4.22
2019-03-23T04:42:59.849Z,3.98
2019-03-23T04:45:28.481Z,3.95
2019-03-23T04:47:56.875Z,3.95
2019-03-23T04:50:25.292Z,4.60
2019-03-23T04:52:53.902Z,4.30
2019-03-23T04:55:22.311Z,4.20
2019-03-23T04:57:50.697Z,3.95
2019-03-23T05:00:20.042Z,4.10
2019-03-23T05:02:48.674Z,4.00
2019-03-23T05:05:17.308Z,3.40
2019-03-23T05:07:45.704Z,4.40
2019-03-23T05:10:14.729Z,4.65
2019-03-23T05:12:43.342Z,4.37
2019-03-23T05:15:11.879Z,3.67
2019-03-23T05:17:40.272Z,3.95
2019-03-23T05:20:10.878Z,4.35
2019-03-23T05:22:39.289Z,4.17
2019-03-23T05:25:09.279Z,3.77
2019-03-23T05:27:37.675Z,3.65
2019-03-23T05:30:07.810Z,4.05
2019-03-23T05:32:36.277Z,4.35
2019-03-23T05:35:06.933Z,4.22
2019-03-23T05:37:35.632Z,4.05
2019-03-23T05:40:08.037Z,4.50
2019-03-23T05:42:36.428Z,4.72
2019-03-23T05:45:07.006Z,8.83
2019-03-23T05:47:35.455Z,5.97
2019-03-23T05:50:05.887Z,4.42
2019-03-23T05:52:34.290Z,4.40
2019-03-23T05:55:02.750Z,4.55
2019-03-23T05:57:31.163Z,5.30
2019-03-23T05:59:59.799Z,6.03
2019-03-23T06:02:28.191Z,4.70
2019-03-23T06:05:02.744Z,4.70
2019-03-23T06:07:31.386Z,6.47
2019-03-23T06:09:59.788Z,20.27
2019-03-23T06:12:28.433Z,14.47
2019-03-23T06:14:56.835Z,10.30
2019-03-23T06:17:25.490Z,27.32
2019-03-23T06:19:53.863Z,36.95
2019-03-23T06:22:22.268Z,48.40
2019-03-23T06:24:50.665Z,48.58
2019-03-23T06:27:19.181Z,48.30
2019-03-23T06:29:47.630Z,66.82
2019-03-23T06:32:16.045Z,82.47
2019-03-23T06:34:44.452Z,90.92
2019-03-23T06:37:12.856Z,87.75
2019-03-23T06:39:41.254Z,81.63
2019-03-23T06:42:09.971Z,83.05
2019-03-23T06:44:38.610Z,81.12
2019-03-23T06:47:07.275Z,83.82
2019-03-23T06:49:35.912Z,72.70
2019-03-23T06:52:04.496Z,75.97
2019-03-23T06:54:33.138Z,75.67
2019-03-23T06:57:01.553Z,78.78
2019-03-23T06:59:29.969Z,75.75
2019-03-23T07:01:58.409Z,74.22
2019-03-23T07:04:26.984Z,63.98
2019-03-23T07:06:55.447Z,66.02
2019-03-23T07:09:23.869Z,65.10
2019-03-23T07:11:52.265Z,67.22
2019-03-23T07:14:20.675Z,63.38
2019-03-23T07:16:49.079Z,65.55
2019-03-23T07:19:17.754Z,66.67
2019-03-23T07:21:46.155Z,70.50
2019-03-23T07:24:14.549Z,72.85
2019-03-23T07:26:42.950Z,72.58
2019-03-23T07:29:11.358Z,70.00
2019-03-23T07:31:40.007Z,68.78
2019-03-23T07:34:08.399Z,73.90
2019-03-23T07:36:36.790Z,79.45
2019-03-23T07:39:06.947Z,72.80
2019-03-23T07:41:35.383Z,69.10
2019-03-23T07:44:04.150Z,67.20
2019-03-23T07:46:32.806Z,66.97
2019-03-23T07:49:01.502Z,68.12
2019-03-23T07:51:29.902Z,67.42
2019-03-23T07:53:58.538Z,67.12
2019-03-23T07:56:26.947Z,65.55
2019-03-23T07:58:55.345Z,59.90
2019-03-23T08:01:24.005Z,61.77
2019-03-23T08:03:52.431Z,59.55
2019-03-23T08:06:20.858Z,63.63
2019-03-23T08:08:49.246Z,66.75
2019-03-23T08:11:17.654Z,64.07
2019-03-23T08:13:46.144Z,59.53
2019-03-23T08:16:14.557Z,65.12
2019-03-23T08:18:43.036Z,61.75
2019-03-23T08:21:11.431Z,60.35
2019-03-23T08:23:39.845Z,57.50
2019-03-23T08:26:08.241Z,59.15
2019-03-23T08:28:36.911Z,58.17
2019-03-23T08:31:05.290Z,58.35
2019-03-23T08:33:33.697Z,61.08
2019-03-23T08:36:02.342Z,59.38
2019-03-23T08:38:30.746Z,60.40
2019-03-23T08:40:59.155Z,63.00
2019-03-23T08:43:27.609Z,63.63
2019-03-23T08:45:57.638Z,59.98
2019-03-23T08:48:27.622Z,57.62
2019-03-23T08:50:56.058Z,64.05
2019-03-23T08:53:29.835Z,64.12
2019-03-23T08:56:02.626Z,61.53
2019-03-23T08:58:31.975Z,61.92
2019-03-23T09:01:00.869Z,66.82
2019-03-23T09:03:29.430Z,60.03
2019-03-23T09:05:59.796Z,57.83
2019-03-23T09:08:30.806Z,57.55
2019-03-23T09:10:59.226Z,62.35
2019-03-23T09:13:40.483Z,55.98
2019-03-23T09:16:07.008Z,60.60
2019-03-23T09:18:38.202Z,62.08
2019-03-23T09:21:15.497Z,60.75
2019-03-23T09:23:43.997Z,60.55
2019-03-23T09:29:04.764Z,58.33
2019-03-23T09:31:41.817Z,61.13
2019-03-23T09:34:12.477Z,62.60
2019-03-23T09:36:41.473Z,64.07
2019-03-23T09:41:59.446Z,66.70
2019-03-23T09:44:30.923Z,66.12
2019-03-23T09:47:03.230Z,70.22
2019-03-23T09:49:31.309Z,59.65
2019-03-23T09:52:02.874Z,55.38
2019-03-23T09:54:33.681Z,58.55
2019-03-23T09:57:05.550Z,63.70
2019-03-23T09:59:39.924Z,61.80
2019-03-23T10:02:12.901Z,65.60
2019-03-23T10:04:45.045Z,67.37
2019-03-23T10:07:15.543Z,63.68
2019-03-23T10:09:44.098Z,62.83
2019-03-23T10:12:16.506Z,60.00
2019-03-23T10:14:55.021Z,63.95
2019-03-23T10:17:24.965Z,61.60
2019-03-23T10:19:53.667Z,60.12
2019-03-23T10:22:22.217Z,59.50
2019-03-23T10:24:53.067Z,59.90
2019-03-23T10:27:21.611Z,63.90
2019-03-23T10:29:52.131Z,64.87
2019-03-23T10:32:20.678Z,61.83
2019-03-23T10:34:51.495Z,62.23
2019-03-23T10:37:19.939Z,59.03
2019-03-23T10:39:48.361Z,55.45
2019-03-23T10:42:17.307Z,56.13
2019-03-23T10:44:47.331Z,54.45
2019-03-23T10:47:21.645Z,61.77
2019-03-23T10:49:50.446Z,55.58
2019-03-23T10:52:22.115Z,52.93
2019-03-23T10:54:50.735Z,54.80
2019-03-23T10:57:19.283Z,53.45
2019-03-23T11:02:42.838Z,55.25
2019-03-23T11:05:11.661Z,51.15
2019-03-23T11:07:48.001Z,52.33
2019-03-23T11:10:42.535Z,54.48
2019-03-23T11:13:11.144Z,53.55
2019-03-23T11:15:42.473Z,54.13
2019-03-23T11:18:11.103Z,51.10
2019-03-23T11:20:41.916Z,49.53
2019-03-23T11:23:10.602Z,50.12
2019-03-23T11:25:41.687Z,51.68
2019-03-23T11:28:12.032Z,51.13
2019-03-23T11:30:40.511Z,51.77
2019-03-23T11:33:10.726Z,53.08
2019-03-23T11:35:42.605Z,52.43
2019-03-23T11:38:12.203Z,51.53
2019-03-23T11:40:53.860Z,55.20
2019-03-23T11:43:13.543Z,52.80
2019-03-23T11:48:40.758Z,53.73
2019-03-23T11:51:15.880Z,55.88
2019-03-23T11:53:47.331Z,52.60
2019-03-23T11:56:16.007Z,52.58
2019-03-23T11:58:46.904Z,54.95
2019-03-23T12:01:16.927Z,54.40
2019-03-23T12:03:45.822Z,53.40
2019-03-23T12:06:14.987Z,59.42
2019-03-23T12:08:45.278Z,56.95
2019-03-23T12:11:16.259Z,55.52
2019-03-23T12:13:47.764Z,60.95
2019-03-23T12:16:18.605Z,60.48
2019-03-23T12:18:54.150Z,59.45
2019-03-23T12:21:24.389Z,60.40
2019-03-23T12:24:01.650Z,53.90
2019-03-23T12:26:30.303Z,54.00
2019-03-23T12:28:58.829Z,56.15
2019-03-23T12:31:36.399Z,54.63
2019-03-23T12:34:10.059Z,56.68
2019-03-23T12:36:41.650Z,56.15
2019-03-23T12:39:11.794Z,57.95
2019-03-23T12:41:47.759Z,55.75
2019-03-23T12:44:20.103Z,55.52
2019-03-23T12:47:03.745Z,57.60
2019-03-23T12:52:24.330Z,58.85
2019-03-23T12:55:07.315Z,55.33
2019-03-23T12:57:38.269Z,56.13
2019-03-23T13:00:12.706Z,56.90
2019-03-23T13:02:43.681Z,59.03
2019-03-23T13:05:12.249Z,59.42
2019-03-23T13:07:41.005Z,60.85
2019-03-23T13:10:11.925Z,58.00
2019-03-23T13:12:42.700Z,53.87
2019-03-23T13:15:15.923Z,55.03
2019-03-23T13:17:46.495Z,56.97
2019-03-23T13:20:19.433Z,55.55
2019-03-23T13:22:47.987Z,57.62
2019-03-23T13:25:18.834Z,59.65
2019-03-23T13:27:50.102Z,54.93
2019-03-23T13:30:23.407Z,55.03
2019-03-23T13:32:51.716Z,54.30
2019-03-23T13:35:20.392Z,55.00
2019-03-23T13:37:54.559Z,52.00
2019-03-23T13:40:23.391Z,52.15
2019-03-23T13:42:53.055Z,47.48
2019-03-23T13:45:21.673Z,50.40
2019-03-23T13:47:50.169Z,48.58
2019-03-23T13:50:29.765Z,50.78
2019-03-23T13:52:58.733Z,51.98
2019-03-23T13:55:32.228Z,49.20
2019-03-23T13:58:09.511Z,49.80
2019-03-23T14:00:38.585Z,48.35
2019-03-23T14:03:13.977Z,49.48
2019-03-23T14:05:38.531Z,47.15
2019-03-23T14:08:12.007Z,48.08
2019-03-23T14:10:42.826Z,46.65
2019-03-23T14:13:13.027Z,46.63
2019-03-23T14:15:48.586Z,48.95
2019-03-23T14:18:17.515Z,46.85
2019-03-23T14:20:46.433Z,46.92
2019-03-23T14:23:15.262Z,46.85
2019-03-23T14:25:44.192Z,45.30
2019-03-23T14:28:17.483Z,44.90
2019-03-23T14:30:55.865Z,44.55
2019-03-23T14:33:23.259Z,42.73
2019-03-23T14:35:54.996Z,46.23
2019-03-23T14:38:25.572Z,47.20
2019-03-23T14:40:57.745Z,42.90
2019-03-23T14:43:29.004Z,44.20
2019-03-23T14:46:05.387Z,44.80
2019-03-23T14:48:41.946Z,42.75
2019-03-23T14:51:13.981Z,46.10
2019-03-23T14:53:42.667Z,44.65
2019-03-23T14:56:11.177Z,45.12
2019-03-23T14:58:40.364Z,43.68
2019-03-23T15:01:11.083Z,44.98
2019-03-23T15:03:39.709Z,44.33
2019-03-23T15:06:10.174Z,42.93
2019-03-23T15:08:38.595Z,44.20
2019-03-23T15:11:07.438Z,43.42
2019-03-23T15:13:42.405Z,42.17
2019-03-23T15:16:10.725Z,40.15
2019-03-23T15:21:36.900Z,42.67
2019-03-23T15:24:10.943Z,43.20
2019-03-23T15:26:39.518Z,43.37
2019-03-23T15:29:10.335Z,41.83
2019-03-23T15:31:41.957Z,42.93
2019-03-23T15:34:12.274Z,44.13
2019-03-23T15:36:43.488Z,41.60
2019-03-23T15:39:15.200Z,42.67
2019-03-23T15:41:48.255Z,42.13
2019-03-23T15:44:18.264Z,43.30
2019-03-23T15:46:46.762Z,41.55
2019-03-23T15:49:15.230Z,44.03
2019-03-23T15:51:43.780Z,45.12
2019-03-23T15:54:12.210Z,45.43
2019-03-23T15:56:40.667Z,47.17
2019-03-23T15:59:09.833Z,43.50
2019-03-23T16:01:39.978Z,42.60
2019-03-23T16:04:11.211Z,46.28
2019-03-23T16:09:34.850Z,44.42
2019-03-23T16:12:05.034Z,45.23
2019-03-23T16:14:38.121Z,46.40
2019-03-23T16:17:16.954Z,45.20
2019-03-23T16:19:45.527Z,46.42
2019-03-23T16:22:18.158Z,43.48
2019-03-23T16:24:49.152Z,44.58
2019-03-23T16:27:17.670Z,40.90
2019-03-23T16:29:50.202Z,45.15
2019-03-23T16:32:18.759Z,46.40
2019-03-23T16:34:51.552Z,45.52
2019-03-23T16:37:19.977Z,45.88
2019-03-23T16:39:53.506Z,44.85
2019-03-23T16:42:22.259Z,45.38
2019-03-23T16:44:55.438Z,42.17
2019-03-23T16:47:27.087Z,45.55
2019-03-23T16:49:58.613Z,43.02
2019-03-23T16:52:27.078Z,42.43
2019-03-23T16:54:58.971Z,43.25
2019-03-23T16:57:27.410Z,41.40
2019-03-23T16:59:57.486Z,41.20
2019-03-23T17:02:31.405Z,39.30
2019-03-23T17:05:01.263Z,38.35
2019-03-23T17:07:29.701Z,39.58
2019-03-23T17:09:58.145Z,35.98
2019-03-23T17:12:29.829Z,40.25
2019-03-23T17:14:58.570Z,38.35
2019-03-23T17:17:28.668Z,40.75
2019-03-23T17:19:57.143Z,38.92
2019-03-23T17:22:30.511Z,38.90
2019-03-23T17:24:59.301Z,37.05
2019-03-23T17:27:33.804Z,40.83
2019-03-23T17:30:03.635Z,36.73
2019-03-23T17:32:32.684Z,39.33
2019-03-23T17:35:03.128Z,40.88
2019-03-23T17:37:33.267Z,35.65
2019-03-23T17:40:01.677Z,37.20
2019-03-23T17:42:38.257Z,36.05
2019-03-23T17:45:08.413Z,34.73
2019-03-23T17:47:37.083Z,36.98
2019-03-23T17:50:07.498Z,34.98
2019-03-23T17:52:38.623Z,34.53
2019-03-23T17:55:08.269Z,33.53
2019-03-23T17:57:38.622Z,33.70
2019-03-23T18:00:09.080Z,32.50
2019-03-23T18:02:40.698Z,35.10
2019-03-23T18:05:14.239Z,36.77
2019-03-23T18:07:44.694Z,35.95
2019-03-23T18:10:13.417Z,32.80
2019-03-23T18:12:42.146Z,36.35
2019-03-23T18:15:15.294Z,34.67
2019-03-23T18:17:45.516Z,34.55
2019-03-23T18:20:14.606Z,33.02
2019-03-23T18:22:45.706Z,33.60
2019-03-23T18:25:14.666Z,31.75
2019-03-23T18:27:43.368Z,32.67
2019-03-23T18:30:30.497Z,30.70
2019-03-23T18:32:59.175Z,31.57
2019-03-23T18:35:30.798Z,31.00
2019-03-23T18:37:59.376Z,29.60
2019-03-23T18:40:31.388Z,29.82
2019-03-23T18:43:00.026Z,29.07
2019-03-23T18:45:28.482Z,31.87
2019-03-23T18:50:50.674Z,28.60
2019-03-23T18:53:19.119Z,30.12
2019-03-23T18:55:50.614Z,30.57
2019-03-23T18:58:22.021Z,26.17
2019-03-23T19:00:50.467Z,26.40
2019-03-23T19:03:22.846Z,27.67
2019-03-23T19:05:53.060Z,27.95
2019-03-23T19:08:23.598Z,29.75
2019-03-23T19:10:52.108Z,27.55
2019-03-23T19:13:20.564Z,28.38
2019-03-23T19:15:49.411Z,28.45
2019-03-23T19:18:22.715Z,28.17
2019-03-23T19:20:59.574Z,25.90
2019-03-23T19:23:34.642Z,29.40
2019-03-23T19:26:01.873Z,28.73
2019-03-23T19:28:35.130Z,25.30
2019-03-23T19:31:03.037Z,28.02
2019-03-23T19:33:31.648Z,26.33
2019-03-23T19:36:00.295Z,26.82
2019-03-23T19:38:31.341Z,29.05
2019-03-23T19:40:59.811Z,26.73
2019-03-23T19:43:28.199Z,25.52
2019-03-23T19:45:56.866Z,26.77
2019-03-23T19:48:25.407Z,25.02
2019-03-23T19:50:54.213Z,27.40
2019-03-23T19:53:22.840Z,28.15
2019-03-23T19:55:51.785Z,25.55
2019-03-23T19:58:20.396Z,26.50
2019-03-23T20:00:48.980Z,27.07
2019-03-23T20:03:19.229Z,23.65
2019-03-23T20:05:48.095Z,26.00
2019-03-23T20:08:16.579Z,27.70
2019-03-23T20:10:45.385Z,20.62
2019-03-23T20:13:14.141Z,24.43
2019-03-23T20:15:43.300Z,26.87
2019-03-23T20:18:11.957Z,26.20
2019-03-23T20:20:40.502Z,25.62
2019-03-23T20:23:09.203Z,25.00
2019-03-23T20:25:39.706Z,25.55
2019-03-23T20:28:08.135Z,26.15
2019-03-23T20:30:37.158Z,23.00
2019-03-23T20:33:05.731Z,27.48
2019-03-23T20:35:34.278Z,27.10
2019-03-23T20:38:02.968Z,26.12
2019-03-23T20:40:31.819Z,24.35
2019-03-23T20:43:00.463Z,25.80
2019-03-23T20:45:30.052Z,26.02
2019-03-23T20:47:59.561Z,25.70
2019-03-23T20:50:28.309Z,26.33
2019-03-23T20:52:57.480Z,25.00
2019-03-23T20:55:28.626Z,24.00
2019-03-23T20:57:58.517Z,24.77
2019-03-23T21:00:27.261Z,28.27
2019-03-23T21:02:55.953Z,22.58
2019-03-23T21:05:33.115Z,22.10
2019-03-23T21:07:55.223Z,22.85
2019-03-23T21:10:24.161Z,24.63
2019-03-23T21:12:52.928Z,24.67
2019-03-23T21:15:21.896Z,22.90
2019-03-23T21:17:51.630Z,25.17
2019-03-23T21:20:20.390Z,24.35
2019-03-23T21:22:53.052Z,24.15
2019-03-23T21:25:21.741Z,27.55
2019-03-23T21:27:50.162Z,26.68
2019-03-23T21:30:19.210Z,25.90
2019-03-23T21:32:47.605Z,26.45
2019-03-23T21:35:16.142Z,26.48
2019-03-23T21:37:44.590Z,24.80
2019-03-23T21:40:13.067Z,24.52
2019-03-23T21:42:41.762Z,24.95
2019-03-23T21:45:10.347Z,26.57
2019-03-23T21:47:39.057Z,25.82
2019-03-23T21:50:09.478Z,24.47
2019-03-23T21:52:38.124Z,24.72
2019-03-23T21:55:08.018Z,24.50
2019-03-23T21:57:36.826Z,23.05
2019-03-23T22:00:07.367Z,24.95
2019-03-23T22:02:35.777Z,23.55
2019-03-23T22:05:06.127Z,25.70
2019-03-23T22:07:35.230Z,23.90
2019-03-23T22:10:08.628Z,26.45
2019-03-23T22:12:37.097Z,25.08
2019-03-23T22:15:10.070Z,24.50
2019-03-23T22:17:38.706Z,26.45
2019-03-23T22:20:08.291Z,27.22
2019-03-23T22:22:36.684Z,25.90
2019-03-23T22:25:06.968Z,22.95
2019-03-23T22:27:37.011Z,24.32
2019-03-23T22:30:13.315Z,24.10
2019-03-23T22:32:41.709Z,22.15
2019-03-23T22:35:10.365Z,26.68
2019-03-23T22:37:38.800Z,22.45
2019-03-23T22:40:09.758Z,23.57
2019-03-23T22:42:38.164Z,22.85
2019-03-23T22:45:10.155Z,22.07
2019-03-23T22:47:38.569Z,22.40
2019-03-23T22:50:08.810Z,21.87
2019-03-23T22:52:37.447Z,24.37
2019-03-23T22:55:06.889Z,24.40
2019-03-23T22:57:35.281Z,22.25
2019-03-23T23:00:05.298Z,22.98
2019-03-23T23:02:33.703Z,24.07
2019-03-23T23:05:02.137Z,22.17
2019-03-23T23:07:30.542Z,20.55
2019-03-23T23:09:58.953Z,23.42
2019-03-23T23:12:27.359Z,23.90
2019-03-23T23:15:04.471Z,25.80
2019-03-23T23:17:28.323Z,26.82
2019-03-23T23:19:57.000Z,22.80
2019-03-23T23:22:25.408Z,25.30
2019-03-23T23:24:53.794Z,24.92
2019-03-23T23:27:22.221Z,23.05
2019-03-23T23:29:50.649Z,24.95
2019-03-23T23:32:19.034Z,24.60
2019-03-23T23:34:47.455Z,23.77
2019-03-23T23:37:15.869Z,27.32
2019-03-23T23:39:44.281Z,25.65
2019-03-23T23:42:12.825Z,24.77
2019-03-23T23:44:41.347Z,23.65
2019-03-23T23:47:09.811Z,25.20
2019-03-23T23:49:38.459Z,26.50
2019-03-23T23:52:06.885Z,23.85
2019-03-23T23:54:35.299Z,24.15
2019-03-23T23:57:03.711Z,26.80
2019-03-23T23:59:32.989Z,28.75
